sensor_id;sensor_type;location;lat;lon;timestamp;temperature;humidity
23405;DHT22;11875;49.356;2.718;2023-03-25T00:00:57;9.50;99.90
23405;DHT22;11875;49.356;2.718;2023-03-25T00:03:30;9.50;99.90
23405;DHT22;11875;49.356;2.718;2023-03-25T00:05:58;9.60;99.90
23405;DHT22;11875;49.356;2.718;2023-03-25T00:08:24;9.70;99.90
23405;DHT22;11875;49.356;2.718;2023-03-25T00:10:52;9.60;99.90
23405;DHT22;11875;49.356;2.718;2023-03-25T00:13:19;9.60;99.90
23405;DHT22;11875;49.356;2.718;2023-03-25T00:15:46;9.80;99.90
23405;DHT22;11875;49.356;2.718;2023-03-25T00:18:13;9.60;99.90
23405;DHT22;11875;49.356;2.718;2023-03-25T00:20:40;9.50;99.90
23405;DHT22;11875;49.356;2.718;2023-03-25T00:23:06;9.50;99.90
23405;DHT22;11875;49.356;2.718;2023-03-25T00:25:32;9.50;99.90
23405;DHT22;11875;49.356;2.718;2023-03-25T00:27:59;9.50;99.90
23405;DHT22;11875;49.356;2.718;2023-03-25T00:30:25;9.50;99.90
23405;DHT22;11875;49.356;2.718;2023-03-25T00:32:51;9.50;99.90
23405;DHT22;11875;49.356;2.718;2023-03-25T00:35:22;9.40;99.90
23405;DHT22;11875;49.356;2.718;2023-03-25T00:37:50;9.40;99.90
23405;DHT22;11875;49.356;2.718;2023-03-25T00:40:22;9.60;99.90
23405;DHT22;11875;49.356;2.718;2023-03-25T00:42:48;9.30;99.90
23405;DHT22;11875;49.356;2.718;2023-03-25T00:45:14;9.30;99.90
23405;DHT22;11875;49.356;2.718;2023-03-25T00:47:41;9.30;99.90
23405;DHT22;11875;49.356;2.718;2023-03-25T00:50:07;9.30;99.90
23405;DHT22;11875;49.356;2.718;2023-03-25T00:52:32;9.40;99.90
23405;DHT22;11875;49.356;2.718;2023-03-25T00:54:58;9.40;99.90
23405;DHT22;11875;49.356;2.718;2023-03-25T00:57:24;9.60;99.90
23405;DHT22;11875;49.356;2.718;2023-03-25T00:59:49;9.50;99.90
23405;DHT22;11875;49.356;2.718;2023-03-25T01:02:15;9.50;99.90
23405;DHT22;11875;49.356;2.718;2023-03-25T01:04:43;9.50;99.90
23405;DHT22;11875;49.356;2.718;2023-03-25T01:07:10;9.60;99.90
23405;DHT22;11875;49.356;2.718;2023-03-25T01:09:38;9.60;99.90
23405;DHT22;11875;49.356;2.718;2023-03-25T01:12:04;9.60;99.90
23405;DHT22;11875;49.356;2.718;2023-03-25T01:14:30;9.60;99.90
23405;DHT22;11875;49.356;2.718;2023-03-25T01:16:58;9.50;99.90
23405;DHT22;11875;49.356;2.718;2023-03-25T01:19:24;9.50;99.90
23405;DHT22;11875;49.356;2.718;2023-03-25T01:21:50;9.40;99.90
23405;DHT22;11875;49.356;2.718;2023-03-25T01:24:16;9.40;99.90
23405;DHT22;11875;49.356;2.718;2023-03-25T01:26:43;9.50;99.90
23405;DHT22;11875;49.356;2.718;2023-03-25T01:29:11;9.20;99.90
23405;DHT22;11875;49.356;2.718;2023-03-25T01:31:37;9.30;99.90
23405;DHT22;11875;49.356;2.718;2023-03-25T01:34:03;9.30;99.90
23405;DHT22;11875;49.356;2.718;2023-03-25T01:36:29;9.40;99.90
23405;DHT22;11875;49.356;2.718;2023-03-25T01:38:56;9.40;99.90
23405;DHT22;11875;49.356;2.718;2023-03-25T01:41:23;9.40;99.90
23405;DHT22;11875;49.356;2.718;2023-03-25T01:46:50;9.30;99.90
23405;DHT22;11875;49.356;2.718;2023-03-25T01:49:23;10.00;99.90
23405;DHT22;11875;49.356;2.718;2023-03-25T01:51:54;9.20;99.90
23405;DHT22;11875;49.356;2.718;2023-03-25T01:54:20;9.30;99.90
23405;DHT22;11875;49.356;2.718;2023-03-25T01:56:48;9.30;99.90
23405;DHT22;11875;49.356;2.718;2023-03-25T01:59:16;9.30;99.90
23405;DHT22;11875;49.356;2.718;2023-03-25T02:01:47;9.30;99.90
23405;DHT22;11875;49.356;2.718;2023-03-25T02:04:15;9.30;99.90
23405;DHT22;11875;49.356;2.718;2023-03-25T02:06:51;9.30;99.90
23405;DHT22;11875;49.356;2.718;2023-03-25T02:09:20;9.30;99.90
23405;DHT22;11875;49.356;2.718;2023-03-25T02:11:47;9.40;99.90
23405;DHT22;11875;49.356;2.718;2023-03-25T02:14:19;9.40;99.90
23405;DHT22;11875;49.356;2.718;2023-03-25T02:17:22;9.40;99.90
23405;DHT22;11875;49.356;2.718;2023-03-25T02:28:53;9.40;99.90
23405;DHT22;11875;49.356;2.718;2023-03-25T02:31:31;9.50;99.90
23405;DHT22;11875;49.356;2.718;2023-03-25T02:34:29;9.60;99.90
23405;DHT22;11875;49.356;2.718;2023-03-25T02:40:01;9.50;99.90
23405;DHT22;11875;49.356;2.718;2023-03-25T02:42:48;9.40;99.90
23405;DHT22;11875;49.356;2.718;2023-03-25T02:47:51;9.40;99.90
23405;DHT22;11875;49.356;2.718;2023-03-25T02:50:39;9.40;99.90
23405;DHT22;11875;49.356;2.718;2023-03-25T02:53:09;9.40;99.90
23405;DHT22;11875;49.356;2.718;2023-03-25T02:55:37;9.40;99.90
23405;DHT22;11875;49.356;2.718;2023-03-25T02:58:08;9.90;99.90
23405;DHT22;11875;49.356;2.718;2023-03-25T03:00:36;9.30;99.90
23405;DHT22;11875;49.356;2.718;2023-03-25T03:03:04;10.10;99.90
23405;DHT22;11875;49.356;2.718;2023-03-25T03:05:32;9.30;99.90
23405;DHT22;11875;49.356;2.718;2023-03-25T03:11:18;9.30;99.90
23405;DHT22;11875;49.356;2.718;2023-03-25T03:19:57;9.30;99.90
23405;DHT22;11875;49.356;2.718;2023-03-25T03:22:38;9.30;99.90
23405;DHT22;11875;49.356;2.718;2023-03-25T03:25:33;9.40;99.90
23405;DHT22;11875;49.356;2.718;2023-03-25T03:28:15;9.40;99.90
23405;DHT22;11875;49.356;2.718;2023-03-25T03:30:51;9.40;99.90
23405;DHT22;11875;49.356;2.718;2023-03-25T03:36:04;9.40;99.90
23405;DHT22;11875;49.356;2.718;2023-03-25T03:38:35;9.40;99.90
23405;DHT22;11875;49.356;2.718;2023-03-25T03:41:07;9.30;99.90
23405;DHT22;11875;49.356;2.718;2023-03-25T03:46:19;9.40;99.90
23405;DHT22;11875;49.356;2.718;2023-03-25T03:48:50;9.40;99.90
23405;DHT22;11875;49.356;2.718;2023-03-25T03:51:37;9.50;99.90
23405;DHT22;11875;49.356;2.718;2023-03-25T03:54:25;9.50;99.90
23405;DHT22;11875;49.356;2.718;2023-03-25T03:57:02;9.50;99.90
23405;DHT22;11875;49.356;2.718;2023-03-25T04:02:22;9.50;99.90
23405;DHT22;11875;49.356;2.718;2023-03-25T04:04:50;9.50;99.90
23405;DHT22;11875;49.356;2.718;2023-03-25T04:07:21;9.50;99.90
23405;DHT22;11875;49.356;2.718;2023-03-25T04:10:02;9.50;99.90
23405;DHT22;11875;49.356;2.718;2023-03-25T04:12:33;9.50;99.90
23405;DHT22;11875;49.356;2.718;2023-03-25T04:15:00;9.60;99.90
23405;DHT22;11875;49.356;2.718;2023-03-25T04:17:27;9.60;99.90
23405;DHT22;11875;49.356;2.718;2023-03-25T04:19:58;9.70;99.90
23405;DHT22;11875;49.356;2.718;2023-03-25T04:22:23;9.70;99.90
23405;DHT22;11875;49.356;2.718;2023-03-25T04:24:49;9.80;99.90
23405;DHT22;11875;49.356;2.718;2023-03-25T04:27:17;9.80;99.90
23405;DHT22;11875;49.356;2.718;2023-03-25T04:29:44;9.70;99.90
23405;DHT22;11875;49.356;2.718;2023-03-25T04:32:12;9.80;99.90
23405;DHT22;11875;49.356;2.718;2023-03-25T04:34:38;9.80;99.90
23405;DHT22;11875;49.356;2.718;2023-03-25T04:37:04;10.20;99.90
23405;DHT22;11875;49.356;2.718;2023-03-25T04:39:30;9.80;99.90
23405;DHT22;11875;49.356;2.718;2023-03-25T04:41:57;9.80;99.90
23405;DHT22;11875;49.356;2.718;2023-03-25T04:44:28;9.90;99.90
23405;DHT22;11875;49.356;2.718;2023-03-25T04:46:55;9.90;99.90
23405;DHT22;11875;49.356;2.718;2023-03-25T04:49:21;9.90;99.90
23405;DHT22;11875;49.356;2.718;2023-03-25T04:51:48;9.90;99.90
23405;DHT22;11875;49.356;2.718;2023-03-25T04:54:16;9.90;99.90
23405;DHT22;11875;49.356;2.718;2023-03-25T04:56:42;9.90;99.90
23405;DHT22;11875;49.356;2.718;2023-03-25T04:59:08;10.20;99.90
23405;DHT22;11875;49.356;2.718;2023-03-25T05:01:36;10.00;99.90
23405;DHT22;11875;49.356;2.718;2023-03-25T05:04:08;9.90;99.90
23405;DHT22;11875;49.356;2.718;2023-03-25T05:06:42;9.80;99.90
23405;DHT22;11875;49.356;2.718;2023-03-25T05:09:19;9.80;99.90
23405;DHT22;11875;49.356;2.718;2023-03-25T05:11:47;9.70;99.90
23405;DHT22;11875;49.356;2.718;2023-03-25T05:14:15;9.60;99.90
23405;DHT22;11875;49.356;2.718;2023-03-25T05:16:41;9.50;99.90
23405;DHT22;11875;49.356;2.718;2023-03-25T05:19:07;9.40;99.90
23405;DHT22;11875;49.356;2.718;2023-03-25T05:21:34;9.90;99.90
23405;DHT22;11875;49.356;2.718;2023-03-25T05:24:01;9.40;99.90
23405;DHT22;11875;49.356;2.718;2023-03-25T05:26:27;9.40;99.90
23405;DHT22;11875;49.356;2.718;2023-03-25T05:29:03;9.30;99.90
23405;DHT22;11875;49.356;2.718;2023-03-25T05:31:30;9.30;99.90
23405;DHT22;11875;49.356;2.718;2023-03-25T05:33:56;10.10;99.90
23405;DHT22;11875;49.356;2.718;2023-03-25T05:36:22;9.50;99.90
23405;DHT22;11875;49.356;2.718;2023-03-25T05:38:50;9.20;99.90
23405;DHT22;11875;49.356;2.718;2023-03-25T05:41:16;9.30;99.90
23405;DHT22;11875;49.356;2.718;2023-03-25T05:43:43;9.30;99.90
23405;DHT22;11875;49.356;2.718;2023-03-25T05:46:13;9.30;99.90
23405;DHT22;11875;49.356;2.718;2023-03-25T05:48:39;9.40;99.90
23405;DHT22;11875;49.356;2.718;2023-03-25T05:51:11;9.40;99.90
23405;DHT22;11875;49.356;2.718;2023-03-25T05:53:38;9.40;99.90
23405;DHT22;11875;49.356;2.718;2023-03-25T05:56:04;9.50;99.90
23405;DHT22;11875;49.356;2.718;2023-03-25T05:58:30;9.40;99.90
23405;DHT22;11875;49.356;2.718;2023-03-25T06:00:57;9.30;99.90
23405;DHT22;11875;49.356;2.718;2023-03-25T06:03:24;9.30;99.90
23405;DHT22;11875;49.356;2.718;2023-03-25T06:05:51;9.30;99.90
23405;DHT22;11875;49.356;2.718;2023-03-25T06:08:18;9.20;99.90
23405;DHT22;11875;49.356;2.718;2023-03-25T06:10:56;9.10;99.90
23405;DHT22;11875;49.356;2.718;2023-03-25T06:13:26;9.00;99.90
23405;DHT22;11875;49.356;2.718;2023-03-25T06:15:51;9.00;99.90
23405;DHT22;11875;49.356;2.718;2023-03-25T06:18:22;9.10;99.90
23405;DHT22;11875;49.356;2.718;2023-03-25T06:20:51;9.10;99.90
23405;DHT22;11875;49.356;2.718;2023-03-25T06:23:25;9.20;99.90
23405;DHT22;11875;49.356;2.718;2023-03-25T06:25:52;9.10;99.90
23405;DHT22;11875;49.356;2.718;2023-03-25T06:28:18;9.10;99.90
23405;DHT22;11875;49.356;2.718;2023-03-25T06:30:45;9.30;99.90
23405;DHT22;11875;49.356;2.718;2023-03-25T06:33:11;10.30;99.90
23405;DHT22;11875;49.356;2.718;2023-03-25T06:35:42;9.40;99.90
23405;DHT22;11875;49.356;2.718;2023-03-25T06:38:10;9.30;99.90
23405;DHT22;11875;49.356;2.718;2023-03-25T06:40:36;9.30;99.90
23405;DHT22;11875;49.356;2.718;2023-03-25T06:43:05;9.30;99.90
23405;DHT22;11875;49.356;2.718;2023-03-25T06:45:32;9.20;99.90
23405;DHT22;11875;49.356;2.718;2023-03-25T06:47:58;9.80;99.90
23405;DHT22;11875;49.356;2.718;2023-03-25T06:50:24;9.40;99.90
23405;DHT22;11875;49.356;2.718;2023-03-25T06:52:50;9.40;99.90
23405;DHT22;11875;49.356;2.718;2023-03-25T06:55:15;9.40;99.90
23405;DHT22;11875;49.356;2.718;2023-03-25T06:57:41;9.40;99.90
23405;DHT22;11875;49.356;2.718;2023-03-25T07:00:08;9.40;99.90
23405;DHT22;11875;49.356;2.718;2023-03-25T07:02:36;9.40;99.90
23405;DHT22;11875;49.356;2.718;2023-03-25T07:05:02;10.00;99.90
23405;DHT22;11875;49.356;2.718;2023-03-25T07:07:28;9.50;99.90
23405;DHT22;11875;49.356;2.718;2023-03-25T07:09:54;9.60;99.90
23405;DHT22;11875;49.356;2.718;2023-03-25T07:12:23;9.60;99.90
23405;DHT22;11875;49.356;2.718;2023-03-25T07:14:53;9.70;99.90
23405;DHT22;11875;49.356;2.718;2023-03-25T07:17:19;9.60;99.90
23405;DHT22;11875;49.356;2.718;2023-03-25T07:19:45;9.60;99.90
23405;DHT22;11875;49.356;2.718;2023-03-25T07:22:10;9.70;99.90
23405;DHT22;11875;49.356;2.718;2023-03-25T07:24:36;9.70;99.90
23405;DHT22;11875;49.356;2.718;2023-03-25T07:27:01;9.70;99.90
23405;DHT22;11875;49.356;2.718;2023-03-25T07:29:27;9.80;99.90
23405;DHT22;11875;49.356;2.718;2023-03-25T07:31:53;9.80;99.90
23405;DHT22;11875;49.356;2.718;2023-03-25T07:34:18;9.80;99.90
23405;DHT22;11875;49.356;2.718;2023-03-25T07:36:44;9.80;99.90
23405;DHT22;11875;49.356;2.718;2023-03-25T07:39:09;9.80;99.90
23405;DHT22;11875;49.356;2.718;2023-03-25T07:41:35;9.90;99.90
23405;DHT22;11875;49.356;2.718;2023-03-25T07:44:01;10.00;99.90
23405;DHT22;11875;49.356;2.718;2023-03-25T07:46:26;10.20;99.90
23405;DHT22;11875;49.356;2.718;2023-03-25T07:48:52;10.30;99.90
23405;DHT22;11875;49.356;2.718;2023-03-25T07:51:17;10.50;99.90
23405;DHT22;11875;49.356;2.718;2023-03-25T07:53:43;11.10;99.90
23405;DHT22;11875;49.356;2.718;2023-03-25T07:56:11;11.50;99.90
23405;DHT22;11875;49.356;2.718;2023-03-25T07:58:37;11.90;99.90
23405;DHT22;11875;49.356;2.718;2023-03-25T08:01:03;12.10;99.90
23405;DHT22;11875;49.356;2.718;2023-03-25T08:03:28;12.40;99.90
23405;DHT22;11875;49.356;2.718;2023-03-25T08:05:54;12.50;99.90
23405;DHT22;11875;49.356;2.718;2023-03-25T08:08:20;12.70;99.90
23405;DHT22;11875;49.356;2.718;2023-03-25T08:10:46;12.90;99.90
23405;DHT22;11875;49.356;2.718;2023-03-25T08:13:13;13.00;99.90
23405;DHT22;11875;49.356;2.718;2023-03-25T08:15:39;13.10;99.90
23405;DHT22;11875;49.356;2.718;2023-03-25T08:18:05;13.10;99.90
23405;DHT22;11875;49.356;2.718;2023-03-25T08:20:32;13.10;99.90
23405;DHT22;11875;49.356;2.718;2023-03-25T08:22:58;13.20;99.90
23405;DHT22;11875;49.356;2.718;2023-03-25T08:25:23;13.20;99.90
23405;DHT22;11875;49.356;2.718;2023-03-25T08:27:49;13.20;99.90
23405;DHT22;11875;49.356;2.718;2023-03-25T08:30:15;13.20;99.90
23405;DHT22;11875;49.356;2.718;2023-03-25T08:32:42;13.30;99.90
23405;DHT22;11875;49.356;2.718;2023-03-25T08:35:11;13.40;99.90
23405;DHT22;11875;49.356;2.718;2023-03-25T08:37:37;13.30;99.90
23405;DHT22;11875;49.356;2.718;2023-03-25T08:40:04;13.30;99.90
23405;DHT22;11875;49.356;2.718;2023-03-25T08:42:34;13.30;99.90
23405;DHT22;11875;49.356;2.718;2023-03-25T08:45:00;13.00;99.90
23405;DHT22;11875;49.356;2.718;2023-03-25T08:47:26;12.90;99.90
23405;DHT22;11875;49.356;2.718;2023-03-25T08:49:51;12.90;99.90
23405;DHT22;11875;49.356;2.718;2023-03-25T08:52:17;12.90;99.90
23405;DHT22;11875;49.356;2.718;2023-03-25T08:54:43;12.90;99.90
23405;DHT22;11875;49.356;2.718;2023-03-25T08:57:08;13.00;99.90
23405;DHT22;11875;49.356;2.718;2023-03-25T08:59:34;13.10;99.90
23405;DHT22;11875;49.356;2.718;2023-03-25T09:01:59;13.00;99.90
23405;DHT22;11875;49.356;2.718;2023-03-25T09:04:25;13.00;99.90
23405;DHT22;11875;49.356;2.718;2023-03-25T09:06:51;13.00;99.90
23405;DHT22;11875;49.356;2.718;2023-03-25T09:09:17;13.00;99.90
23405;DHT22;11875;49.356;2.718;2023-03-25T09:11:42;13.20;99.90
23405;DHT22;11875;49.356;2.718;2023-03-25T09:14:08;13.20;99.90
23405;DHT22;11875;49.356;2.718;2023-03-25T09:16:34;13.40;99.90
23405;DHT22;11875;49.356;2.718;2023-03-25T09:19:00;13.60;99.90
23405;DHT22;11875;49.356;2.718;2023-03-25T09:21:25;13.70;99.90
23405;DHT22;11875;49.356;2.718;2023-03-25T09:23:51;13.90;99.90
23405;DHT22;11875;49.356;2.718;2023-03-25T09:26:17;14.00;99.90
23405;DHT22;11875;49.356;2.718;2023-03-25T09:28:42;14.10;99.90
23405;DHT22;11875;49.356;2.718;2023-03-25T09:31:08;13.80;99.90
23405;DHT22;11875;49.356;2.718;2023-03-25T09:33:34;13.70;99.90
23405;DHT22;11875;49.356;2.718;2023-03-25T09:36:00;13.70;99.90
23405;DHT22;11875;49.356;2.718;2023-03-25T09:38:27;13.70;99.90
23405;DHT22;11875;49.356;2.718;2023-03-25T09:40:52;13.80;99.90
23405;DHT22;11875;49.356;2.718;2023-03-25T09:46:04;14.00;99.90
23405;DHT22;11875;49.356;2.718;2023-03-25T09:48:39;14.10;99.90
23405;DHT22;11875;49.356;2.718;2023-03-25T09:51:14;14.00;99.90
23405;DHT22;11875;49.356;2.718;2023-03-25T09:53:46;14.00;99.90
23405;DHT22;11875;49.356;2.718;2023-03-25T09:56:17;14.00;99.90
23405;DHT22;11875;49.356;2.718;2023-03-25T10:06:56;14.20;99.90
23405;DHT22;11875;49.356;2.718;2023-03-25T10:12:24;14.30;99.90
23405;DHT22;11875;49.356;2.718;2023-03-25T10:15:39;14.40;99.90
23405;DHT22;11875;49.356;2.718;2023-03-25T10:18:11;14.50;99.90
23405;DHT22;11875;49.356;2.718;2023-03-25T10:20:51;14.50;99.90
23405;DHT22;11875;49.356;2.718;2023-03-25T10:26:44;14.20;99.90
23405;DHT22;11875;49.356;2.718;2023-03-25T10:29:15;14.30;99.90
23405;DHT22;11875;49.356;2.718;2023-03-25T10:31:50;14.10;99.90
23405;DHT22;11875;49.356;2.718;2023-03-25T10:34:18;14.00;99.90
23405;DHT22;11875;49.356;2.718;2023-03-25T10:36:53;13.90;99.90
23405;DHT22;11875;49.356;2.718;2023-03-25T10:39:24;13.80;99.90
23405;DHT22;11875;49.356;2.718;2023-03-25T10:44:40;13.80;99.90
23405;DHT22;11875;49.356;2.718;2023-03-25T10:47:11;13.90;99.90
23405;DHT22;11875;49.356;2.718;2023-03-25T10:49:39;14.10;99.90
23405;DHT22;11875;49.356;2.718;2023-03-25T10:52:06;14.10;99.90
23405;DHT22;11875;49.356;2.718;2023-03-25T10:54:39;14.20;99.90
23405;DHT22;11875;49.356;2.718;2023-03-25T10:57:07;14.10;99.90
23405;DHT22;11875;49.356;2.718;2023-03-25T11:00:24;14.10;99.90
23405;DHT22;11875;49.356;2.718;2023-03-25T11:02:28;14.30;99.90
23405;DHT22;11875;49.356;2.718;2023-03-25T11:05:01;14.40;99.90
23405;DHT22;11875;49.356;2.718;2023-03-25T11:07:35;14.50;99.90
23405;DHT22;11875;49.356;2.718;2023-03-25T11:10:31;14.50;99.90
23405;DHT22;11875;49.356;2.718;2023-03-25T11:12:57;14.60;99.90
23405;DHT22;11875;49.356;2.718;2023-03-25T11:15:33;14.60;99.90
23405;DHT22;11875;49.356;2.718;2023-03-25T11:20:38;14.60;99.90
23405;DHT22;11875;49.356;2.718;2023-03-25T11:25:49;15.00;99.90
23405;DHT22;11875;49.356;2.718;2023-03-25T11:28:51;15.10;99.90
23405;DHT22;11875;49.356;2.718;2023-03-25T11:31:23;15.00;99.90
23405;DHT22;11875;49.356;2.718;2023-03-25T11:37:06;15.20;99.90
23405;DHT22;11875;49.356;2.718;2023-03-25T11:39:38;15.20;99.90
23405;DHT22;11875;49.356;2.718;2023-03-25T11:44:49;15.00;99.90
23405;DHT22;11875;49.356;2.718;2023-03-25T11:47:21;14.70;99.90
23405;DHT22;11875;49.356;2.718;2023-03-25T11:49:51;14.50;99.90
23405;DHT22;11875;49.356;2.718;2023-03-25T11:52:24;14.40;99.90
23405;DHT22;11875;49.356;2.718;2023-03-25T11:54:55;14.50;99.90
23405;DHT22;11875;49.356;2.718;2023-03-25T11:57:33;14.60;99.90
23405;DHT22;11875;49.356;2.718;2023-03-25T12:00:05;14.80;99.90
23405;DHT22;11875;49.356;2.718;2023-03-25T12:02:38;14.90;99.90
23405;DHT22;11875;49.356;2.718;2023-03-25T12:05:13;14.90;99.90
23405;DHT22;11875;49.356;2.718;2023-03-25T12:07:50;15.00;99.90
23405;DHT22;11875;49.356;2.718;2023-03-25T12:13:42;15.00;99.90
23405;DHT22;11875;49.356;2.718;2023-03-25T12:22:28;14.80;99.90
23405;DHT22;11875;49.356;2.718;2023-03-25T12:25:05;14.70;99.90
23405;DHT22;11875;49.356;2.718;2023-03-25T12:27:54;14.60;99.90
23405;DHT22;11875;49.356;2.718;2023-03-25T12:44:02;14.80;99.90
23405;DHT22;11875;49.356;2.718;2023-03-25T12:59:21;14.90;99.90
23405;DHT22;11875;49.356;2.718;2023-03-25T13:02:25;14.80;99.90
23405;DHT22;11875;49.356;2.718;2023-03-25T13:05:14;14.80;99.90
23405;DHT22;11875;49.356;2.718;2023-03-25T13:07:54;14.70;99.90
23405;DHT22;11875;49.356;2.718;2023-03-25T13:10:27;14.50;99.90
23405;DHT22;11875;49.356;2.718;2023-03-25T13:12:57;14.10;99.90
23405;DHT22;11875;49.356;2.718;2023-03-25T13:15:25;14.00;99.90
23405;DHT22;11875;49.356;2.718;2023-03-25T13:18:10;14.00;99.90
23405;DHT22;11875;49.356;2.718;2023-03-25T13:21:09;13.50;99.90
23405;DHT22;11875;49.356;2.718;2023-03-25T13:23:36;13.10;99.90
23405;DHT22;11875;49.356;2.718;2023-03-25T13:26:09;12.90;99.90
23405;DHT22;11875;49.356;2.718;2023-03-25T13:28:45;12.80;99.90
23405;DHT22;11875;49.356;2.718;2023-03-25T13:31:34;12.80;99.90
23405;DHT22;11875;49.356;2.718;2023-03-25T13:37:10;12.60;99.90
23405;DHT22;11875;49.356;2.718;2023-03-25T13:45:19;12.50;99.90
23405;DHT22;11875;49.356;2.718;2023-03-25T13:48:15;12.70;99.90
23405;DHT22;11875;49.356;2.718;2023-03-25T13:50:42;12.90;99.90
23405;DHT22;11875;49.356;2.718;2023-03-25T13:53:16;12.90;99.90
23405;DHT22;11875;49.356;2.718;2023-03-25T14:13:10;12.80;99.90
23405;DHT22;11875;49.356;2.718;2023-03-25T14:15:40;12.60;99.90
23405;DHT22;11875;49.356;2.718;2023-03-25T14:18:14;12.60;99.90
23405;DHT22;11875;49.356;2.718;2023-03-25T14:20:41;12.40;99.90
23405;DHT22;11875;49.356;2.718;2023-03-25T14:23:11;12.30;99.90
23405;DHT22;11875;49.356;2.718;2023-03-25T14:25:41;12.40;99.90
23405;DHT22;11875;49.356;2.718;2023-03-25T14:28:17;12.60;99.90
23405;DHT22;11875;49.356;2.718;2023-03-25T14:30:43;12.60;99.90
23405;DHT22;11875;49.356;2.718;2023-03-25T14:33:11;12.50;99.90
23405;DHT22;11875;49.356;2.718;2023-03-25T14:35:44;12.60;99.90
23405;DHT22;11875;49.356;2.718;2023-03-25T14:38:18;12.70;99.90
23405;DHT22;11875;49.356;2.718;2023-03-25T14:40:48;12.70;99.90
23405;DHT22;11875;49.356;2.718;2023-03-25T14:46:02;12.60;99.90
23405;DHT22;11875;49.356;2.718;2023-03-25T14:48:35;12.60;99.90
23405;DHT22;11875;49.356;2.718;2023-03-25T14:54:01;12.80;99.90
23405;DHT22;11875;49.356;2.718;2023-03-25T14:56:35;13.00;99.90
23405;DHT22;11875;49.356;2.718;2023-03-25T14:59:08;13.20;99.90
23405;DHT22;11875;49.356;2.718;2023-03-25T15:01:36;13.40;99.90
23405;DHT22;11875;49.356;2.718;2023-03-25T15:04:28;13.40;99.90
23405;DHT22;11875;49.356;2.718;2023-03-25T15:06:54;13.70;99.90
23405;DHT22;11875;49.356;2.718;2023-03-25T15:09:20;13.90;99.90
23405;DHT22;11875;49.356;2.718;2023-03-25T15:12:13;14.10;99.90
23405;DHT22;11875;49.356;2.718;2023-03-25T15:14:41;14.10;99.90
23405;DHT22;11875;49.356;2.718;2023-03-25T15:17:11;13.80;99.90
23405;DHT22;11875;49.356;2.718;2023-03-25T15:22:35;13.50;99.90
23405;DHT22;11875;49.356;2.718;2023-03-25T15:25:02;13.40;99.90
23405;DHT22;11875;49.356;2.718;2023-03-25T15:30:38;13.60;99.90
23405;DHT22;11875;49.356;2.718;2023-03-25T15:36:00;13.80;99.90
23405;DHT22;11875;49.356;2.718;2023-03-25T15:38:36;14.00;99.90
23405;DHT22;11875;49.356;2.718;2023-03-25T15:46:27;14.50;99.90
23405;DHT22;11875;49.356;2.718;2023-03-25T15:52:02;14.50;99.90
23405;DHT22;11875;49.356;2.718;2023-03-25T15:57:42;14.60;99.90
23405;DHT22;11875;49.356;2.718;2023-03-25T16:00:28;14.50;99.90
23405;DHT22;11875;49.356;2.718;2023-03-25T16:05:37;14.50;99.90
23405;DHT22;11875;49.356;2.718;2023-03-25T16:08:18;14.30;99.90
23405;DHT22;11875;49.356;2.718;2023-03-25T16:10:46;14.40;99.90
23405;DHT22;11875;49.356;2.718;2023-03-25T16:13:13;14.30;99.90
23405;DHT22;11875;49.356;2.718;2023-03-25T16:15:50;14.20;99.90
23405;DHT22;11875;49.356;2.718;2023-03-25T16:18:20;14.10;99.90
23405;DHT22;11875;49.356;2.718;2023-03-25T16:20:46;14.00;99.90
23405;DHT22;11875;49.356;2.718;2023-03-25T16:23:18;14.10;99.90
23405;DHT22;11875;49.356;2.718;2023-03-25T16:25:46;14.30;99.90
23405;DHT22;11875;49.356;2.718;2023-03-25T16:28:34;14.30;99.90
23405;DHT22;11875;49.356;2.718;2023-03-25T16:31:03;14.40;99.90
23405;DHT22;11875;49.356;2.718;2023-03-25T16:33:31;14.30;99.90
23405;DHT22;11875;49.356;2.718;2023-03-25T16:36:00;14.50;99.90
23405;DHT22;11875;49.356;2.718;2023-03-25T16:38:26;14.60;99.90
23405;DHT22;11875;49.356;2.718;2023-03-25T16:41:03;14.60;99.90
23405;DHT22;11875;49.356;2.718;2023-03-25T16:43:31;14.60;99.90
23405;DHT22;11875;49.356;2.718;2023-03-25T16:45:59;14.60;99.90
23405;DHT22;11875;49.356;2.718;2023-03-25T16:48:29;14.60;99.90
23405;DHT22;11875;49.356;2.718;2023-03-25T16:50:58;14.60;99.90
23405;DHT22;11875;49.356;2.718;2023-03-25T16:53:24;14.40;99.90
23405;DHT22;11875;49.356;2.718;2023-03-25T16:59:07;14.60;99.90
23405;DHT22;11875;49.356;2.718;2023-03-25T17:01:41;14.60;99.90
23405;DHT22;11875;49.356;2.718;2023-03-25T17:06:35;14.80;99.90
23405;DHT22;11875;49.356;2.718;2023-03-25T17:09:09;14.80;99.90
23405;DHT22;11875;49.356;2.718;2023-03-25T17:11:37;14.90;99.90
23405;DHT22;11875;49.356;2.718;2023-03-25T17:14:09;14.60;99.90
23405;DHT22;11875;49.356;2.718;2023-03-25T17:16:40;14.50;99.90
23405;DHT22;11875;49.356;2.718;2023-03-25T17:19:09;14.40;99.90
23405;DHT22;11875;49.356;2.718;2023-03-25T17:22:02;14.20;99.90
23405;DHT22;11875;49.356;2.718;2023-03-25T17:24:37;14.20;99.90
23405;DHT22;11875;49.356;2.718;2023-03-25T17:27:25;14.10;99.90
23405;DHT22;11875;49.356;2.718;2023-03-25T17:30:18;14.00;99.90
23405;DHT22;11875;49.356;2.718;2023-03-25T17:32:45;14.20;99.90
23405;DHT22;11875;49.356;2.718;2023-03-25T17:35:25;14.00;99.90
23405;DHT22;11875;49.356;2.718;2023-03-25T17:37:55;14.10;99.90
23405;DHT22;11875;49.356;2.718;2023-03-25T17:40:24;14.00;99.90
23405;DHT22;11875;49.356;2.718;2023-03-25T17:42:51;14.10;99.90
23405;DHT22;11875;49.356;2.718;2023-03-25T17:45:17;14.10;99.90
23405;DHT22;11875;49.356;2.718;2023-03-25T17:47:44;14.10;99.90
23405;DHT22;11875;49.356;2.718;2023-03-25T17:50:23;14.20;99.90
23405;DHT22;11875;49.356;2.718;2023-03-25T17:52:52;14.20;99.90
23405;DHT22;11875;49.356;2.718;2023-03-25T17:55:18;14.00;99.90
23405;DHT22;11875;49.356;2.718;2023-03-25T17:57:44;13.90;99.90
23405;DHT22;11875;49.356;2.718;2023-03-25T18:00:14;13.80;99.90
23405;DHT22;11875;49.356;2.718;2023-03-25T18:02:46;13.70;99.90
23405;DHT22;11875;49.356;2.718;2023-03-25T18:05:12;13.70;99.90
23405;DHT22;11875;49.356;2.718;2023-03-25T18:07:39;13.60;99.90
23405;DHT22;11875;49.356;2.718;2023-03-25T18:10:18;13.70;99.90
23405;DHT22;11875;49.356;2.718;2023-03-25T18:12:45;13.60;99.90
23405;DHT22;11875;49.356;2.718;2023-03-25T18:15:11;13.60;99.90
23405;DHT22;11875;49.356;2.718;2023-03-25T18:17:38;13.60;99.90
23405;DHT22;11875;49.356;2.718;2023-03-25T18:20:14;13.70;99.90
23405;DHT22;11875;49.356;2.718;2023-03-25T18:22:41;13.80;99.90
23405;DHT22;11875;49.356;2.718;2023-03-25T18:25:06;13.90;99.90
23405;DHT22;11875;49.356;2.718;2023-03-25T18:27:32;14.00;99.90
23405;DHT22;11875;49.356;2.718;2023-03-25T18:29:58;14.00;99.90
23405;DHT22;11875;49.356;2.718;2023-03-25T18:32:24;14.10;99.90
23405;DHT22;11875;49.356;2.718;2023-03-25T18:34:50;14.10;99.90
23405;DHT22;11875;49.356;2.718;2023-03-25T18:37:16;14.00;99.90
23405;DHT22;11875;49.356;2.718;2023-03-25T18:39:41;14.00;99.90